^^
Your Local Weather - Clay, NY Station Historical Data
Daily Summary for February 15, 2017 Units:  English    Metric   Both
« Previous Day
Next Day »
Daily Weekly Monthly Yearly Custom
  High: Low: Average:
Temperature: 36.7 °F 26.8 °F 33 °F
Dew Point: 33.2 °F 23.8 °F 28.5 °F
Humidity: 93% 66% 84%
Wind Speed: 6.0mph 0.0mph 2.2mph
Wind Gust: 13.0mph - -
Wind- - WNW
Pressure: 29.52 in 29.38 in -
Precipitation: 0.26 in    
Historical Graphs
 
 
Tabular Data for February 15, 2017
Time Temperature Dew Point Pressure Wind Wind Speed Wind Gust Humidity Rainfall Rate (Hourly) solar
00:04 33.0 °F 27.8 °F 29.52 in Calm     81% 0.00 in 0 W/m2
00:10 33.0 °F 27.8 °F 29.52 in Calm     81% 0.00 in 0 W/m2
00:16 33.1 °F 28.2 °F 29.52 in Calm     82% 0.00 in 0 W/m2
00:22 33.1 °F 28.2 °F 29.51 in Calm     82% 0.00 in 0 W/m2
00:28 33.1 °F 28.2 °F 29.51 in Calm     82% 0.00 in 0 W/m2
00:34 33.1 °F 28.2 °F 29.51 in Calm     82% 0.00 in 0 W/m2
00:40 33.0 °F 28.4 °F 29.51 in Calm     83% 0.00 in 0 W/m2
00:46 33.0 °F 28.1 °F 29.51 in Calm     82% 0.00 in 0 W/m2
00:52 33.0 °F 28.4 °F 29.51 in Calm     83% 0.00 in 0 W/m2
00:58 32.9 °F 28.3 °F 29.50 in Calm     83% 0.00 in 0 W/m2
01:04 33.2 °F 28.3 °F 29.50 in Calm   2.0 mph 82% 0.00 in 0 W/m2
01:10 33.7 °F 28.5 °F 29.49 in Calm     81% 0.00 in 0 W/m2
01:16 33.9 °F 28.4 °F 29.49 in Calm     80% 0.00 in 0 W/m2
01:22 33.9 °F 28.4 °F 29.49 in Calm     80% 0.00 in 0 W/m2
01:28 33.9 °F 28.4 °F 29.49 in Calm     80% 0.00 in 0 W/m2
01:34 33.6 °F 28.4 °F 29.49 in Calm   2.0 mph 81% 0.00 in 0 W/m2
01:40 33.6 °F 28.4 °F 29.49 in South 1.0 mph 1.0 mph 81% 0.00 in 0 W/m2
01:46 33.4 °F 28.2 °F 29.49 in Calm   1.0 mph 81% 0.00 in 0 W/m2
01:52 33.2 °F 28.3 °F 29.49 in Calm     82% 0.00 in 0 W/m2
01:58 33.1 °F 28.5 °F 29.49 in Calm     83% 0.00 in 0 W/m2
02:04 33.1 °F 28.5 °F 29.49 in Calm     83% 0.00 in 0 W/m2
02:10 33.0 °F 28.4 °F 29.48 in Calm     83% 0.00 in 0 W/m2
02:16 32.9 °F 28.6 °F 29.48 in Calm     84% 0.00 in 0 W/m2
02:22 33.0 °F 28.4 °F 29.48 in Calm     83% 0.00 in 0 W/m2
02:28 33.1 °F 28.5 °F 29.47 in Calm     83% 0.00 in 0 W/m2
02:34 33.0 °F 28.4 °F 29.47 in Calm     83% 0.00 in 0 W/m2
02:40 32.9 °F 28.6 °F 29.46 in Calm     84% 0.00 in 0 W/m2
02:46 32.9 °F 28.6 °F 29.46 in Calm     84% 0.00 in 0 W/m2
02:52 33.0 °F 29.0 °F 29.46 in Calm     85% 0.00 in 0 W/m2
02:58 33.3 °F 29.0 °F 29.46 in Calm     84% 0.00 in 0 W/m2
03:04 33.7 °F 29.4 °F 29.46 in Calm   1.0 mph 84% 0.00 in 0 W/m2
03:10 34.0 °F 29.7 °F 29.47 in Calm     84% 0.00 in 0 W/m2
03:16 34.3 °F 30.0 °F 29.47 in Calm   1.0 mph 84% 0.00 in 0 W/m2
03:22 34.3 °F 30.3 °F 29.47 in WNW 1.0 mph 5.0 mph 85% 0.00 in 0 W/m2
03:28 34.4 °F 30.4 °F 29.47 in WNW 1.0 mph 5.0 mph 85% 0.00 in 0 W/m2
03:34 34.4 °F 30.4 °F 29.46 in Calm   1.0 mph 85% 0.00 in 0 W/m2
03:40 34.4 °F 30.4 °F 29.46 in Calm     85% 0.00 in 0 W/m2
03:46 34.3 °F 30.5 °F 29.45 in Calm     86% 0.00 in 0 W/m2
03:52 33.9 °F 30.4 °F 29.45 in Calm     87% 0.00 in 0 W/m2
03:58 33.6 °F 30.4 °F 29.45 in Calm   1.0 mph 88% 0.00 in 0 W/m2
04:04 33.3 °F 30.1 °F 29.45 in Calm     88% 0.00 in 0 W/m2
04:10 33.3 °F 30.4 °F 29.44 in Calm   1.0 mph 89% 0.00 in 0 W/m2
04:16 33.2 °F 30.3 °F 29.45 in Calm   1.0 mph 89% 0.00 in 0 W/m2
04:22 33.0 °F 30.4 °F 29.43 in Calm   2.0 mph 90% 0.00 in 0 W/m2
04:28 32.9 °F 30.3 °F 29.43 in WNW 1.0 mph 2.0 mph 90% 0.00 in 0 W/m2
04:34 33.0 °F 30.4 °F 29.43 in Calm     90% 0.00 in 0 W/m2
04:40 32.8 °F 30.2 °F 29.44 in Calm     90% 0.00 in 0 W/m2
04:46 32.7 °F 30.4 °F 29.44 in Calm     91% 0.00 in 0 W/m2
04:52 32.7 °F 30.4 °F 29.44 in Calm     91% 0.00 in 0 W/m2
04:58 32.8 °F 30.5 °F 29.44 in Calm     91% 0.00 in 0 W/m2
05:04 32.7 °F 30.4 °F 29.44 in Calm     91% 0.00 in 0 W/m2
05:10 32.6 °F 30.3 °F 29.44 in Calm     91% 0.00 in 0 W/m2
05:16 32.6 °F 30.3 °F 29.44 in Calm     91% 0.00 in 0 W/m2
05:22 32.6 °F 30.3 °F 29.44 in Calm     91% 0.00 in 0 W/m2
05:28 32.7 °F 30.4 °F 29.43 in Calm     91% 0.09 in 0 W/m2
05:34 33.0 °F 30.9 °F 29.43 in Calm   1.0 mph 92% 0.09 in 0 W/m2
05:40 33.5 °F 31.4 °F 29.43 in Calm     92% 0.06 in 0 W/m2
05:46 33.9 °F 31.8 °F 29.43 in Calm   1.0 mph 92% 0.04 in 0 W/m2
05:52 34.1 °F 32.0 °F 29.43 in Calm     92% 0.00 in 0 W/m2
05:58 34.1 °F 32.0 °F 29.42 in Calm     92% 0.00 in 0 W/m2
06:04 34.1 °F 32.0 °F 29.42 in Calm     92% 0.00 in 0 W/m2
06:10 33.9 °F 31.8 °F 29.42 in Calm     92% 0.00 in 0 W/m2
06:16 33.6 °F 31.5 °F 29.42 in Calm     92% 0.00 in 0 W/m2
06:22 33.3 °F 31.0 °F 29.42 in Calm     91% 0.00 in 0 W/m2
06:28 33.2 °F 31.1 °F 29.42 in Calm     92% 0.00 in 0 W/m2
06:34 33.1 °F 31.0 °F 29.42 in Calm     92% 0.00 in 0 W/m2
06:40 33.0 °F 30.9 °F 29.42 in Calm     92% 0.00 in 0 W/m2
06:46 33.0 °F 30.9 °F 29.41 in Calm     92% 0.00 in 0 W/m2
06:52 32.8 °F 30.7 °F 29.41 in Calm     92% 0.00 in 0 W/m2
06:58 32.8 °F 30.7 °F 29.41 in Calm     92% 0.00 in 0 W/m2
07:04 32.8 °F 30.7 °F 29.41 in Calm     92% 0.00 in 0 W/m2
07:10 32.8 °F 30.7 °F 29.41 in Calm     92% 0.00 in 0 W/m2
07:16 32.8 °F 30.7 °F 29.41 in Calm     92% 0.00 in 0 W/m2
07:22 32.9 °F 30.8 °F 29.41 in Calm     92% 0.00 in 0 W/m2
07:28 33.0 °F 30.9 °F 29.40 in Calm     92% 0.00 in 5 W/m2
07:34 33.0 °F 30.9 °F 29.40 in Calm     92% 0.00 in 7 W/m2
07:40 32.9 °F 30.8 °F 29.40 in Calm     92% 0.00 in 9 W/m2
07:46 32.9 °F 30.8 °F 29.40 in Calm     92% 0.00 in 11 W/m2
07:52 32.9 °F 30.8 °F 29.40 in Calm     92% 0.00 in 11 W/m2
07:58 33.0 °F 31.2 °F 29.40 in Calm     93% 0.00 in 12 W/m2
08:04 33.1 °F 31.3 °F 29.40 in Calm     93% 0.06 in 14 W/m2
08:10 33.2 °F 31.4 °F 29.40 in Calm   2.0 mph 93% 0.05 in 12 W/m2
08:16 33.2 °F 31.4 °F 29.40 in WNW 1.0 mph 2.0 mph 93% 0.00 in 18 W/m2
08:22 33.0 °F 31.2 °F 29.40 in Calm     93% 0.13 in 26 W/m2
08:28 32.9 °F 31.1 °F 29.40 in Calm     93% 0.08 in 32 W/m2
08:34 32.9 °F 31.1 °F 29.39 in Calm     93% 0.05 in 35 W/m2
08:40 32.8 °F 31.0 °F 29.40 in Calm     93% 0.05 in 30 W/m2
08:46 32.8 °F 30.7 °F 29.40 in Calm     92% 0.05 in 21 W/m2
08:52 32.7 °F 30.6 °F 29.40 in Calm     92% 0.05 in 19 W/m2
08:58 32.6 °F 30.8 °F 29.40 in Calm     93% 0.05 in 21 W/m2
09:04 32.6 °F 30.8 °F 29.40 in Calm     93% 0.00 in 28 W/m2
09:10 32.6 °F 30.8 °F 29.39 in Calm     93% 0.00 in 35 W/m2
09:16 32.6 °F 30.8 °F 29.39 in Calm     93% 0.00 in 39 W/m2
09:22 32.6 °F 30.8 °F 29.39 in Calm     93% 0.00 in 53 W/m2
09:28 32.7 °F 30.9 °F 29.39 in Calm     93% 0.00 in 56 W/m2
09:34 32.8 °F 31.0 °F 29.38 in Calm     93% 0.00 in 77 W/m2
09:40 32.9 °F 31.1 °F 29.38 in Calm     93% 0.00 in 63 W/m2
09:46 33.0 °F 31.2 °F 29.38 in Calm   2.0 mph 93% 0.04 in 77 W/m2
09:52 33.0 °F 31.2 °F 29.39 in Calm     93% 0.04 in 81 W/m2
09:58 33.1 °F 31.3 °F 29.39 in WNW 1.0 mph 2.0 mph 93% 0.04 in 83 W/m2
10:04 33.2 °F 31.4 °F 29.39 in WNW 1.0 mph 2.0 mph 93% 0.08 in 77 W/m2
10:10 33.5 °F 31.7 °F 29.38 in WNW 1.0 mph 1.0 mph 93% 0.07 in 98 W/m2
10:16 33.7 °F 31.9 °F 29.38 in WNW 1.0 mph 1.0 mph 93% 0.04 in 128 W/m2
10:22 34.1 °F 32.3 °F 29.38 in WNW 1.0 mph 3.0 mph 93% 0.04 in 158 W/m2
10:28 34.4 °F 32.6 °F 29.38 in WNW 1.0 mph 3.0 mph 93% 0.04 in 167 W/m2
10:34 34.8 °F 33.0 °F 29.39 in WNW 1.0 mph 2.0 mph 93% 0.04 in 190 W/m2
10:40 35.0 °F 33.2 °F 29.39 in WNW 1.0 mph 1.0 mph 93% 0.04 in 113 W/m2
10:46 35.2 °F 33.1 °F 29.40 in WNW 1.0 mph 3.0 mph 92% 0.04 in 127 W/m2
10:52 35.2 °F 33.1 °F 29.40 in WNW 2.0 mph 2.0 mph 92% 0.00 in 63 W/m2
10:58 35.2 °F 32.8 °F 29.40 in WNW 2.0 mph 3.0 mph 91% 0.00 in 90 W/m2
11:04 35.2 °F 32.8 °F 29.40 in WNW 1.0 mph 2.0 mph 91% 0.00 in 95 W/m2
11:10 35.2 °F 32.6 °F 29.40 in WNW 1.0 mph 1.0 mph 90% 0.00 in 139 W/m2
11:16 35.3 °F 32.4 °F 29.40 in NW 2.0 mph 3.0 mph 89% 0.00 in 163 W/m2
11:22 35.5 °F 32.3 °F 29.40 in NW 1.0 mph 3.0 mph 88% 0.00 in 144 W/m2
11:28 35.6 °F 32.4 °F 29.40 in NW 1.0 mph 3.0 mph 88% 0.00 in 109 W/m2
11:34 35.7 °F 32.2 °F 29.40 in NW 1.0 mph 2.0 mph 87% 0.00 in 149 W/m2
11:40 35.8 °F 32.0 °F 29.40 in NW 2.0 mph 2.0 mph 86% 0.00 in 163 W/m2
11:46 35.9 °F 31.8 °F 29.40 in NW 2.0 mph 2.0 mph 85% 0.00 in 134 W/m2
11:52 35.9 °F 31.5 °F 29.40 in WNW 3.0 mph 3.0 mph 84% 0.00 in 239 W/m2
11:58 36.1 °F 31.4 °F 29.40 in NW 3.0 mph 3.0 mph 83% 0.00 in 193 W/m2
12:04 36.1 °F 31.1 °F 29.40 in WNW 3.0 mph 6.0 mph 82% 0.00 in 162 W/m2
12:10 36.0 °F 31.0 °F 29.40 in WNW 3.0 mph 3.0 mph 82% 0.00 in 214 W/m2
12:16 36.3 °F 31.0 °F 29.40 in NNW 2.0 mph 5.0 mph 81% 0.00 in 276 W/m2
12:22 36.4 °F 30.5 °F 29.40 in West 3.0 mph 4.0 mph 79% 0.00 in 244 W/m2
12:28 36.2 °F 30.0 °F 29.40 in WNW 4.0 mph 5.0 mph 78% 0.00 in 172 W/m2
12:34 35.9 °F 29.7 °F 29.39 in NW 4.0 mph 4.0 mph 78% 0.00 in 128 W/m2
12:40 35.8 °F 29.9 °F 29.39 in WNW 3.0 mph 6.0 mph 79% 0.00 in 218 W/m2
12:46 35.9 °F 29.7 °F 29.39 in WNW 3.0 mph 6.0 mph 78% 0.00 in 206 W/m2
12:52 36.0 °F 29.5 °F 29.39 in NW 3.0 mph 3.0 mph 77% 0.00 in 193 W/m2
12:58 36.2 °F 29.7 °F 29.39 in WNW 3.0 mph 6.0 mph 77% 0.00 in 376 W/m2
13:04 36.4 °F 29.2 °F 29.39 in NW 3.0 mph 4.0 mph 75% 0.00 in 246 W/m2
13:10 36.4 °F 28.9 °F 29.39 in NW 3.0 mph 3.0 mph 74% 0.00 in 341 W/m2
13:16 36.4 °F 28.6 °F 29.39 in NW 4.0 mph 6.0 mph 73% 0.00 in 274 W/m2
13:22 36.3 °F 28.1 °F 29.39 in WNW 4.0 mph 6.0 mph 72% 0.00 in 316 W/m2
13:28 36.6 °F 28.1 °F 29.39 in WNW 4.0 mph 6.0 mph 71% 0.00 in 385 W/m2
13:34 36.7 °F 27.8 °F 29.39 in WNW 5.0 mph 5.0 mph 70% 0.00 in 285 W/m2
13:40 36.2 °F 27.0 °F 29.39 in NW 5.0 mph 5.0 mph 69% 0.00 in 146 W/m2
13:46 35.7 °F 27.2 °F 29.39 in West 5.0 mph 7.0 mph 71% 0.00 in 118 W/m2
13:52 35.7 °F 27.6 °F 29.39 in WNW 4.0 mph 5.0 mph 72% 0.00 in 251 W/m2
13:58 36.4 °F 27.5 °F 29.39 in NW 4.0 mph 6.0 mph 70% 0.00 in 265 W/m2
14:04 36.5 °F 27.6 °F 29.39 in WNW 4.0 mph 6.0 mph 70% 0.00 in 109 W/m2
14:10 35.7 °F 26.9 °F 29.40 in NW 4.0 mph 5.0 mph 70% 0.00 in 79 W/m2
14:16 34.8 °F 27.0 °F 29.40 in WNW 5.0 mph 8.0 mph 73% 0.00 in 116 W/m2
14:22 34.7 °F 27.6 °F 29.40 in NNW 4.0 mph 5.0 mph 75% 0.00 in 125 W/m2
14:28 34.6 °F 27.8 °F 29.40 in WNW 3.0 mph 5.0 mph 76% 0.00 in 174 W/m2
14:34 34.9 °F 28.1 °F 29.40 in WNW 4.0 mph 6.0 mph 76% 0.00 in 216 W/m2
14:40 35.1 °F 28.0 °F 29.41 in NW 4.0 mph 4.0 mph 75% 0.00 in 248 W/m2
14:46 35.7 °F 28.2 °F 29.41 in West 4.0 mph 6.0 mph 74% 0.00 in 299 W/m2
14:52 35.8 °F 26.3 °F 29.41 in West 4.0 mph 5.0 mph 68% 0.00 in 290 W/m2
14:58 35.8 °F 25.9 °F 29.41 in NW 5.0 mph 6.0 mph 67% 0.00 in 127 W/m2
15:04 35.5 °F 26.3 °F 29.41 in NW 4.0 mph 6.0 mph 69% 0.00 in 88 W/m2
15:10 35.4 °F 26.2 °F 29.41 in WNW 5.0 mph 5.0 mph 69% 0.00 in 83 W/m2
15:16 35.3 °F 26.1 °F 29.41 in NNW 5.0 mph 8.0 mph 69% 0.00 in 91 W/m2
15:22 35.6 °F 26.1 °F 29.41 in WNW 4.0 mph 4.0 mph 68% 0.00 in 128 W/m2
15:28 35.5 °F 25.3 °F 29.41 in WNW 4.0 mph 5.0 mph 66% 0.00 in 102 W/m2
15:34 35.5 °F 25.6 °F 29.41 in WNW 4.0 mph 7.0 mph 67% 0.00 in 76 W/m2
15:40 35.3 °F 25.8 °F 29.41 in NW 5.0 mph 5.0 mph 68% 0.00 in 53 W/m2
15:46 35.2 °F 26.0 °F 29.41 in West 5.0 mph 6.0 mph 69% 0.00 in 62 W/m2
15:52 35.2 °F 26.4 °F 29.41 in NNW 4.0 mph 5.0 mph 70% 0.00 in 98 W/m2
15:58 35.2 °F 26.4 °F 29.42 in WNW 4.0 mph 5.0 mph 70% 0.00 in 90 W/m2
16:04 35.2 °F 26.7 °F 29.42 in West 4.0 mph 6.0 mph 71% 0.00 in 86 W/m2
16:10 35.2 °F 26.7 °F 29.42 in NW 4.0 mph 4.0 mph 71% 0.00 in 74 W/m2
16:16 35.2 °F 26.4 °F 29.42 in West 4.0 mph 6.0 mph 70% 0.00 in 51 W/m2
16:22 35.0 °F 26.5 °F 29.42 in NW 5.0 mph 7.0 mph 71% 0.00 in 47 W/m2
16:28 34.6 °F 27.5 °F 29.42 in West 6.0 mph 7.0 mph 75% 0.00 in 40 W/m2
16:34 33.9 °F 27.8 °F 29.43 in NW 4.0 mph 6.0 mph 78% 0.00 in 83 W/m2
16:40 33.6 °F 28.1 °F 29.42 in WNW 3.0 mph 3.0 mph 80% 0.00 in 33 W/m2
16:46 33.0 °F 28.4 °F 29.43 in WNW 4.0 mph 13.0 mph 83% 0.00 in 11 W/m2
16:52 32.3 °F 28.9 °F 29.43 in WNW 4.0 mph 5.0 mph 87% 0.00 in 46 W/m2
16:58 32.1 °F 28.9 °F 29.43 in WNW 2.0 mph 5.0 mph 88% 0.00 in 26 W/m2
17:04 32.1 °F 28.9 °F 29.43 in WSW 2.0 mph 5.0 mph 88% 0.00 in 9 W/m2
17:10 32.1 °F 29.2 °F 29.43 in WNW 3.0 mph 6.0 mph 89% 0.00 in 9 W/m2
17:16 32.0 °F 29.1 °F 29.43 in WNW 4.0 mph 6.0 mph 89% 0.00 in 9 W/m2
17:22 32.0 °F 29.4 °F 29.43 in WNW 3.0 mph 4.0 mph 90% 0.00 in 11 W/m2
17:28 32.1 °F 29.2 °F 29.43 in WNW 4.0 mph 5.0 mph 89% 0.00 in 0 W/m2
17:34 32.2 °F 29.3 °F 29.43 in SW 4.0 mph 7.0 mph 89% 0.00 in 0 W/m2
17:40 32.3 °F 29.1 °F 29.43 in West 4.0 mph 4.0 mph 88% 0.00 in 0 W/m2
17:46 32.4 °F 29.0 °F 29.44 in WNW 3.0 mph 4.0 mph 87% 0.00 in 0 W/m2
17:52 32.6 °F 28.9 °F 29.44 in West 3.0 mph 5.0 mph 86% 0.00 in 0 W/m2
17:58 32.7 °F 28.4 °F 29.44 in West 4.0 mph 5.0 mph 84% 0.00 in 0 W/m2
18:04 32.7 °F 28.1 °F 29.44 in WNW 3.0 mph 4.0 mph 83% 0.00 in 0 W/m2
18:10 32.7 °F 27.2 °F 29.44 in NW 3.0 mph 5.0 mph 80% 0.00 in 0 W/m2
18:16 32.8 °F 26.4 °F 29.45 in WNW 5.0 mph 8.0 mph 77% 0.00 in 0 W/m2
18:22 32.7 °F 26.0 °F 29.45 in West 5.0 mph 7.0 mph 76% 0.00 in 0 W/m2
18:28 32.7 °F 25.6 °F 29.45 in West 4.0 mph 7.0 mph 75% 0.00 in 0 W/m2
18:34 32.6 °F 25.2 °F 29.45 in WNW 4.0 mph 9.0 mph 74% 0.00 in 0 W/m2
18:40 32.6 °F 25.2 °F 29.46 in WNW 4.0 mph 5.0 mph 74% 0.00 in 0 W/m2
18:46 32.6 °F 25.2 °F 29.46 in WNW 4.0 mph 6.0 mph 74% 0.00 in 0 W/m2
18:48 32.6 °F 25.2 °F 29.46 in WNW 4.0 mph 6.0 mph 74% 0.00 in 0 W/m2
18:54 32.6 °F 25.2 °F 29.45 in West 3.0 mph 4.0 mph 74% 0.00 in 0 W/m2
19:00 32.6 °F 24.9 °F 29.46 in WNW 4.0 mph 4.0 mph 73% 0.00 in 0 W/m2
19:06 32.6 °F 25.2 °F 29.46 in WNW 4.0 mph 6.0 mph 74% 0.00 in 0 W/m2
19:12 32.6 °F 25.2 °F 29.46 in NNW 3.0 mph 3.0 mph 74% 0.00 in 0 W/m2
19:18 32.6 °F 25.2 °F 29.46 in NW 3.0 mph 3.0 mph 74% 0.00 in 0 W/m2
19:24 32.6 °F 25.2 °F 29.46 in WNW 4.0 mph 5.0 mph 74% 0.00 in 0 W/m2
19:30 32.6 °F 25.2 °F 29.46 in WNW 4.0 mph 4.0 mph 74% 0.00 in 0 W/m2
19:36 32.6 °F 25.6 °F 29.46 in WNW 4.0 mph 8.0 mph 75% 0.00 in 0 W/m2
19:42 32.6 °F 25.6 °F 29.47 in NW 5.0 mph 10.0 mph 75% 0.00 in 0 W/m2
19:48 32.4 °F 25.7 °F 29.47 in West 6.0 mph 10.0 mph 76% 0.00 in 0 W/m2
19:54 32.2 °F 25.5 °F 29.47 in West 6.0 mph 7.0 mph 76% 0.00 in 0 W/m2
20:00 32.1 °F 25.4 °F 29.47 in West 5.0 mph 10.0 mph 76% 0.00 in 0 W/m2
20:06 31.9 °F 25.5 °F 29.48 in West 6.0 mph 10.0 mph 77% 0.00 in 0 W/m2
20:12 31.8 °F 25.4 °F 29.48 in WNW 6.0 mph 8.0 mph 77% 0.00 in 0 W/m2
20:18 31.7 °F 25.6 °F 29.48 in WNW 6.0 mph 9.0 mph 78% 0.00 in 0 W/m2
20:24 31.5 °F 25.4 °F 29.48 in WNW 5.0 mph 6.0 mph 78% 0.00 in 0 W/m2
20:30 31.4 °F 25.6 °F 29.48 in WNW 4.0 mph 4.0 mph 79% 0.00 in 0 W/m2
20:36 31.2 °F 25.4 °F 29.49 in West 4.0 mph 6.0 mph 79% 0.00 in 0 W/m2
20:42 31.0 °F 25.2 °F 29.49 in WSW 5.0 mph 5.0 mph 79% 0.00 in 0 W/m2
20:48 30.8 °F 24.7 °F 29.49 in WNW 5.0 mph 9.0 mph 78% 0.00 in 0 W/m2
20:54 30.7 °F 24.7 °F 29.49 in West 5.0 mph 7.0 mph 78% 0.00 in 0 W/m2
21:00 30.6 °F 24.6 °F 29.49 in West 4.0 mph 4.0 mph 78% 0.00 in 0 W/m2
21:06 30.4 °F 24.4 °F 29.49 in WNW 5.0 mph 7.0 mph 78% 0.00 in 0 W/m2
21:12 30.3 °F 24.6 °F 29.49 in WNW 4.0 mph 4.0 mph 79% 0.00 in 0 W/m2
21:18 30.0 °F 24.3 °F 29.49 in WNW 5.0 mph 6.0 mph 79% 0.00 in 0 W/m2
21:24 29.8 °F 24.4 °F 29.49 in WNW 6.0 mph 6.0 mph 80% 0.00 in 0 W/m2
21:30 29.6 °F 24.8 °F 29.50 in WNW 4.0 mph 4.0 mph 82% 0.00 in 0 W/m2
21:36 29.5 °F 24.7 °F 29.50 in West 4.0 mph 6.0 mph 82% 0.00 in 0 W/m2
21:42 29.3 °F 24.8 °F 29.50 in NW 5.0 mph 5.0 mph 83% 0.00 in 0 W/m2
21:48 29.0 °F 24.5 °F 29.50 in WSW 5.0 mph 9.0 mph 83% 0.00 in 0 W/m2
21:54 28.8 °F 24.6 °F 29.50 in West 4.0 mph 6.0 mph 84% 0.00 in 0 W/m2
22:00 28.6 °F 24.7 °F 29.50 in WNW 4.0 mph 4.0 mph 85% 0.00 in 0 W/m2
22:06 28.5 °F 24.6 °F 29.50 in West 5.0 mph 5.0 mph 85% 0.00 in 0 W/m2
22:12 28.3 °F 24.6 °F 29.50 in WNW 4.0 mph 5.0 mph 86% 0.00 in 0 W/m2
22:18 28.1 °F 24.5 °F 29.50 in WNW 4.0 mph 5.0 mph 86% 0.00 in 0 W/m2
22:24 28.0 °F 24.4 °F 29.50 in West 5.0 mph 7.0 mph 86% 0.00 in 0 W/m2
22:30 27.9 °F 24.3 °F 29.50 in West 5.0 mph 7.0 mph 86% 0.00 in 0 W/m2
22:36 27.8 °F 24.2 °F 29.50 in West 5.0 mph 9.0 mph 86% 0.00 in 0 W/m2
22:42 27.6 °F 24.0 °F 29.51 in WNW 4.0 mph 5.0 mph 86% 0.00 in 0 W/m2
22:48 27.6 °F 24.0 °F 29.51 in West 5.0 mph 6.0 mph 86% 0.00 in 0 W/m2
22:54 27.4 °F 23.8 °F 29.51 in WNW 5.0 mph 6.0 mph 86% 0.00 in 0 W/m2
23:00 27.3 °F 23.9 °F 29.51 in WNW 4.0 mph 4.0 mph 87% 0.00 in 0 W/m2
23:06 27.2 °F 23.8 °F 29.51 in West 4.0 mph 6.0 mph 87% 0.00 in 0 W/m2
23:12 27.1 °F 24.0 °F 29.51 in WNW 4.0 mph 4.0 mph 88% 0.00 in 0 W/m2
23:18 27.0 °F 23.9 °F 29.51 in WNW 4.0 mph 7.0 mph 88% 0.00 in 0 W/m2
23:24 26.9 °F 23.8 °F 29.51 in WNW 4.0 mph 5.0 mph 88% 0.00 in 0 W/m2
23:30 26.9 °F 24.1 °F 29.51 in NW 5.0 mph 9.0 mph 89% 0.00 in 0 W/m2
23:36 26.8 °F 24.0 °F 29.51 in West 4.0 mph 9.0 mph 89% 0.00 in 0 W/m2
23:42 26.9 °F 24.1 °F 29.52 in West 4.0 mph 6.0 mph 89% 0.00 in 0 W/m2
23:48 26.8 °F 24.0 °F 29.52 in WNW 4.0 mph 6.0 mph 89% 0.00 in 0 W/m2
23:54 26.8 °F 24.0 °F 29.52 in WNW 3.0 mph 4.0 mph 89% 0.00 in 0 W/m2
Country Meadow, Clay, NY, USA
Compliments of Weather Underground - 2 mb